| Date | Time | Temp. (oF) | Dew Point (oF) | Rel. Hum. (%) | Press. (in.) | Wind Dir. | Wind Speed (mph) | Hourly Rainfall (in.) |
|
|---|---|---|---|---|---|---|---|---|---|
| 1 | 12/13 | 00:00 | 33 | 24 | 70 | 30.12 | WNW | 4 | 0.00 |
| 2 | 12/12 | 23:00 | 35 | 26 | 70 | 30.10 | WNW | 4 | 0.00 |
| 3 | 12/12 | 22:00 | 36 | 27 | 70 | 30.07 | WNW | 0 | 0.00 |
| 4 | 12/12 | 21:00 | 37 | 29 | 73 | 30.04 | WNW | 4 | 0.00 |
| 5 | 12/12 | 20:00 | 37 | 30 | 77 | 30.00 | WNW | 0 | 0.00 |
| 6 | 12/12 | 19:00 | 39 | 30 | 72 | 29.98 | WNW | 1 | 0.00 |
| 7 | 12/12 | 18:00 | 41 | 36 | 85 | 29.94 | WNW | 0 | 0.00 |
| 8 | 12/12 | 17:00 | 42 | 38 | 86 | 29.91 | WNW | 4 | 0.00 |
| 9 | 12/12 | 16:00 | 45 | 40 | 83 | 29.86 | WNW | 2 | 0.00 |
| 10 | 12/12 | 15:00 | 44 | 40 | 89 | 29.86 | WNW | 2 | 0.00 |
| 11 | 12/12 | 14:00 | 44 | 42 | 93 | 29.86 | WNW | 0 | 0.00 |
| 12 | 12/12 | 13:00 | 42 | 40 | 95 | 29.87 | WNW | 0 | 0.00 |
| 13 | 12/12 | 12:00 | 42 | 40 | 95 | 29.88 | WNW | 0 | 0.00 |
| 14 | 12/12 | 11:00 | 41 | 40 | 98 | 29.90 | SW | 0 | 0.00 |
| 15 | 12/12 | 10:00 | 40 | 39 | 98 | 29.90 | WNW | 0 | 0.00 |
| 16 | 12/12 | 09:00 | 39 | 39 | 100 | 29.91 | WNW | 0 | 0.00 |
| 17 | 12/12 | 08:00 | 37 | 36 | 100 | 29.89 | WNW | 6 | 0.00 |
| 18 | 12/12 | 07:00 | 37 | 36 | 100 | 29.92 | WNW | 0 | 0.01 |
| 19 | 12/12 | 06:00 | 36 | 36 | 100 | 29.92 | WNW | 0 | 0.03 |
| 20 | 12/12 | 05:00 | 35 | 35 | 100 | 29.92 | WNW | 6 | 0.07 |
| 21 | 12/12 | 04:00 | 35 | 35 | 100 | 29.97 | WNW | 6 | 0.11 |
| 22 | 12/12 | 03:00 | 34 | 33 | 100 | 30.00 | WNW | 0 | 0.11 |
| 23 | 12/12 | 02:00 | 33 | 31 | 96 | 30.03 | WNW | 0 | 0.06 |
| 24 | 12/12 | 01:00 | 33 | 28 | 85 | 30.08 | WNW | 2 | 0.01 |